sensor_id;sensor_type;location;lat;lon;timestamp;pressure;altitude;pressure_sealevel;temperature;humidity
32320;BME280;19080;51.750;5.888;2023-05-09T00:01:23;101568.78;;;15.40;100.00
32320;BME280;19080;51.750;5.888;2023-05-09T00:03:50;101569.72;;;15.45;100.00
32320;BME280;19080;51.750;5.888;2023-05-09T00:06:17;101548.31;;;15.45;100.00
32320;BME280;19080;51.750;5.888;2023-05-09T00:08:44;101533.16;;;15.44;100.00
32320;BME280;19080;51.750;5.888;2023-05-09T00:11:11;101537.66;;;15.50;100.00
32320;BME280;19080;51.750;5.888;2023-05-09T00:13:38;101527.78;;;15.43;100.00
32320;BME280;19080;51.750;5.888;2023-05-09T00:16:05;101534.03;;;15.43;100.00
32320;BME280;19080;51.750;5.888;2023-05-09T00:18:31;101536.69;;;15.40;100.00
32320;BME280;19080;51.750;5.888;2023-05-09T00:20:59;101535.78;;;15.35;100.00
32320;BME280;19080;51.750;5.888;2023-05-09T00:23:31;101534.88;;;15.33;100.00
32320;BME280;19080;51.750;5.888;2023-05-09T00:25:58;101518.78;;;15.27;100.00
32320;BME280;19080;51.750;5.888;2023-05-09T00:28:25;101517.88;;;15.25;100.00
32320;BME280;19080;51.750;5.888;2023-05-09T00:30:52;101511.63;;;15.23;100.00
32320;BME280;19080;51.750;5.888;2023-05-09T00:33:19;101482.09;;;15.08;100.00
32320;BME280;19080;51.750;5.888;2023-05-09T00:35:46;101454.34;;;14.90;100.00
32320;BME280;19080;51.750;5.888;2023-05-09T00:38:12;101504.47;;;15.23;100.00
32320;BME280;19080;51.750;5.888;2023-05-09T00:40:39;101509.03;;;15.37;100.00
32320;BME280;19080;51.750;5.888;2023-05-09T00:43:06;101493.00;;;15.38;100.00
32320;BME280;19080;51.750;5.888;2023-05-09T00:45:33;101501.94;;;15.46;100.00
32320;BME280;19080;51.750;5.888;2023-05-09T00:47:59;101455.47;;;15.26;100.00
32320;BME280;19080;51.750;5.888;2023-05-09T00:50:26;101515.44;;;15.68;100.00
32320;BME280;19080;51.750;5.888;2023-05-09T00:52:53;101532.44;;;15.73;100.00
32320;BME280;19080;51.750;5.888;2023-05-09T00:55:20;101522.63;;;15.78;100.00
32320;BME280;19080;51.750;5.888;2023-05-09T00:57:47;101452.03;;;15.48;100.00
32320;BME280;19080;51.750;5.888;2023-05-09T01:00:14;101450.25;;;15.53;100.00
32320;BME280;19080;51.750;5.888;2023-05-09T01:02:45;101505.75;;;15.91;100.00
32320;BME280;19080;51.750;5.888;2023-05-09T01:05:13;101488.75;;;15.81;100.00
32320;BME280;19080;51.750;5.888;2023-05-09T01:07:48;101506.66;;;15.94;100.00
32320;BME280;19080;51.750;5.888;2023-05-09T01:13:16;101426.16;;;15.50;100.00
32320;BME280;19080;51.750;5.888;2023-05-09T01:16:11;101494.13;;;15.87;100.00
32320;BME280;19080;51.750;5.888;2023-05-09T01:21:32;101469.97;;;15.71;100.00
32320;BME280;19080;51.750;5.888;2023-05-09T01:32:06;101394.03;;;15.41;100.00
32320;BME280;19080;51.750;5.888;2023-05-09T01:34:37;101405.66;;;15.49;100.00
32320;BME280;19080;51.750;5.888;2023-05-09T01:37:06;101474.47;;;15.84;100.00
32320;BME280;19080;51.750;5.888;2023-05-09T01:39:37;101480.72;;;15.83;100.00
32320;BME280;19080;51.750;5.888;2023-05-09T01:42:07;101459.25;;;15.68;100.00
32320;BME280;19080;51.750;5.888;2023-05-09T01:44:37;101459.28;;;15.77;100.00
32320;BME280;19080;51.750;5.888;2023-05-09T01:47:06;101349.34;;;15.20;100.00
32320;BME280;19080;51.750;5.888;2023-05-09T01:49:37;101462.91;;;15.94;100.00
32320;BME280;19080;51.750;5.888;2023-05-09T01:52:09;101452.19;;;15.91;100.00
32320;BME280;19080;51.750;5.888;2023-05-09T01:54:38;101450.41;;;15.90;100.00
32320;BME280;19080;51.750;5.888;2023-05-09T01:57:07;101420.00;;;15.73;100.00
32320;BME280;19080;51.750;5.888;2023-05-09T01:59:34;101454.00;;;15.95;100.00
32320;BME280;19080;51.750;5.888;2023-05-09T02:02:02;101432.53;;;15.80;100.00
32320;BME280;19080;51.750;5.888;2023-05-09T02:04:29;101425.34;;;15.67;100.00
32320;BME280;19080;51.750;5.888;2023-05-09T02:06:56;101448.59;;;15.80;100.00
32320;BME280;19080;51.750;5.888;2023-05-09T02:09:24;101426.25;;;15.69;100.00
32320;BME280;19080;51.750;5.888;2023-05-09T02:11:51;101415.50;;;15.64;100.00
32320;BME280;19080;51.750;5.888;2023-05-09T02:14:18;101425.34;;;15.73;100.00
32320;BME280;19080;51.750;5.888;2023-05-09T02:16:45;101425.34;;;15.68;100.00
32320;BME280;19080;51.750;5.888;2023-05-09T02:19:11;101433.38;;;15.73;100.00
32320;BME280;19080;51.750;5.888;2023-05-09T02:21:38;101437.88;;;15.75;100.00
32320;BME280;19080;51.750;5.888;2023-05-09T02:24:05;101399.44;;;15.56;100.00
32320;BME280;19080;51.750;5.888;2023-05-09T02:26:34;101453.06;;;15.87;100.00
32320;BME280;19080;51.750;5.888;2023-05-09T02:29:04;101423.59;;;15.78;100.00
32320;BME280;19080;51.750;5.888;2023-05-09T02:31:32;101433.41;;;15.77;100.00
32320;BME280;19080;51.750;5.888;2023-05-09T02:34:01;101411.97;;;15.74;100.00
32320;BME280;19080;51.750;5.888;2023-05-09T02:36:30;101429.84;;;15.83;100.00
32320;BME280;19080;51.750;5.888;2023-05-09T02:38:59;101441.47;;;15.88;100.00
32320;BME280;19080;51.750;5.888;2023-05-09T02:41:28;101428.97;;;15.84;100.00
32320;BME280;19080;51.750;5.888;2023-05-09T02:43:55;101391.44;;;15.69;100.00
32320;BME280;19080;51.750;5.888;2023-05-09T02:46:23;101429.88;;;15.90;100.00
32320;BME280;19080;51.750;5.888;2023-05-09T02:48:49;101402.19;;;15.81;100.00
32320;BME280;19080;51.750;5.888;2023-05-09T02:51:17;101361.97;;;15.56;100.00
32320;BME280;19080;51.750;5.888;2023-05-09T02:53:44;101421.81;;;15.83;100.00
32320;BME280;19080;51.750;5.888;2023-05-09T02:56:10;101409.31;;;15.79;100.00
32320;BME280;19080;51.750;5.888;2023-05-09T02:58:37;101412.88;;;15.75;100.00
32320;BME280;19080;51.750;5.888;2023-05-09T03:01:04;101420.91;;;15.73;100.00
32320;BME280;19080;51.750;5.888;2023-05-09T03:03:31;101410.16;;;15.64;100.00
32320;BME280;19080;51.750;5.888;2023-05-09T03:06:02;101386.91;;;15.48;100.00
32320;BME280;19080;51.750;5.888;2023-05-09T03:08:29;101396.72;;;15.49;100.00
32320;BME280;19080;51.750;5.888;2023-05-09T03:10:56;101390.44;;;15.41;100.00
32320;BME280;19080;51.750;5.888;2023-05-09T03:13:23;101393.16;;;15.47;100.00
32320;BME280;19080;51.750;5.888;2023-05-09T03:15:50;101385.09;;;15.42;100.00
32320;BME280;19080;51.750;5.888;2023-05-09T03:18:17;101401.25;;;15.57;100.00
32320;BME280;19080;51.750;5.888;2023-05-09T03:20:44;101378.91;;;15.52;100.00
32320;BME280;19080;51.750;5.888;2023-05-09T03:23:11;101402.13;;;15.62;100.00
32320;BME280;19080;51.750;5.888;2023-05-09T03:25:37;101395.00;;;15.61;100.00
32320;BME280;19080;51.750;5.888;2023-05-09T03:28:04;101404.81;;;15.69;100.00
32320;BME280;19080;51.750;5.888;2023-05-09T03:30:31;101405.72;;;15.74;100.00
32320;BME280;19080;51.750;5.888;2023-05-09T03:32:59;101392.34;;;15.66;100.00
32320;BME280;19080;51.750;5.888;2023-05-09T03:35:26;101378.94;;;15.65;100.00
32320;BME280;19080;51.750;5.888;2023-05-09T03:37:53;101369.13;;;15.65;100.00
32320;BME280;19080;51.750;5.888;2023-05-09T03:40:20;101377.16;;;15.67;100.00
32320;BME280;19080;51.750;5.888;2023-05-09T03:42:54;101313.72;;;15.32;100.00
32320;BME280;19080;51.750;5.888;2023-05-09T03:45:21;101367.34;;;15.64;100.00
32320;BME280;19080;51.750;5.888;2023-05-09T03:48:36;101364.69;;;15.69;100.00
32320;BME280;19080;51.750;5.888;2023-05-09T03:51:04;101365.56;;;15.66;100.00
32320;BME280;19080;51.750;5.888;2023-05-09T03:53:35;101380.75;;;15.72;100.00
32320;BME280;19080;51.750;5.888;2023-05-09T03:56:03;101354.88;;;15.60;100.00
32320;BME280;19080;51.750;5.888;2023-05-09T03:58:37;101371.81;;;15.70;100.00
32320;BME280;19080;51.750;5.888;2023-05-09T04:01:05;101378.06;;;15.67;100.00
32320;BME280;19080;51.750;5.888;2023-05-09T04:03:32;101370.03;;;15.69;100.00
32320;BME280;19080;51.750;5.888;2023-05-09T04:05:59;101342.34;;;15.56;100.00
32320;BME280;19080;51.750;5.888;2023-05-09T04:08:31;101347.72;;;15.57;100.00
32320;BME280;19080;51.750;5.888;2023-05-09T04:10:59;101291.44;;;15.25;100.00
32320;BME280;19080;51.750;5.888;2023-05-09T04:13:26;101293.22;;;15.25;100.00
32320;BME280;19080;51.750;5.888;2023-05-09T04:15:56;101281.63;;;15.27;100.00
32320;BME280;19080;51.750;5.888;2023-05-09T04:18:24;101327.16;;;15.50;100.00
32320;BME280;19080;51.750;5.888;2023-05-09T04:20:52;101368.25;;;15.74;100.00
32320;BME280;19080;51.750;5.888;2023-05-09T04:23:19;101294.13;;;15.32;100.00
32320;BME280;19080;51.750;5.888;2023-05-09T04:25:46;101370.03;;;15.72;100.00
32320;BME280;19080;51.750;5.888;2023-05-09T04:28:12;101348.59;;;15.62;100.00
32320;BME280;19080;51.750;5.888;2023-05-09T04:30:39;101350.41;;;15.67;100.00
32320;BME280;19080;51.750;5.888;2023-05-09T04:33:06;101335.22;;;15.64;100.00
32320;BME280;19080;51.750;5.888;2023-05-09T04:35:34;101355.78;;;15.76;100.00
32320;BME280;19080;51.750;5.888;2023-05-09T04:38:00;101358.47;;;15.77;100.00
32320;BME280;19080;51.750;5.888;2023-05-09T04:40:27;101302.25;;;15.57;100.00
32320;BME280;19080;51.750;5.888;2023-05-09T04:42:57;101336.16;;;15.77;100.00
32320;BME280;19080;51.750;5.888;2023-05-09T04:45:27;101324.53;;;15.70;100.00
32320;BME280;19080;51.750;5.888;2023-05-09T04:47:55;101334.38;;;15.82;100.00
32320;BME280;19080;51.750;5.888;2023-05-09T04:50:22;101339.72;;;15.79;100.00
32320;BME280;19080;51.750;5.888;2023-05-09T04:52:49;101259.34;;;15.35;100.00
32320;BME280;19080;51.750;5.888;2023-05-09T04:55:16;101325.44;;;15.75;100.00
32320;BME280;19080;51.750;5.888;2023-05-09T04:57:46;101331.69;;;15.80;100.00
32320;BME280;19080;51.750;5.888;2023-05-09T05:00:13;101301.34;;;15.69;100.00
32320;BME280;19080;51.750;5.888;2023-05-09T05:02:43;101317.41;;;15.74;100.00
32320;BME280;19080;51.750;5.888;2023-05-09T05:05:11;101323.66;;;15.82;100.00
32320;BME280;19080;51.750;5.888;2023-05-09T05:07:41;101327.25;;;15.87;100.00
32320;BME280;19080;51.750;5.888;2023-05-09T05:10:09;101305.81;;;15.81;100.00
32320;BME280;19080;51.750;5.888;2023-05-09T05:12:38;101301.38;;;15.93;100.00
32320;BME280;19080;51.750;5.888;2023-05-09T05:15:08;101243.34;;;15.67;100.00
32320;BME280;19080;51.750;5.888;2023-05-09T05:17:36;101296.91;;;16.12;100.00
32320;BME280;19080;51.750;5.888;2023-05-09T05:20:05;101277.25;;;16.22;100.00
32320;BME280;19080;51.750;5.888;2023-05-09T05:22:33;101305.81;;;16.48;100.00
32320;BME280;19080;51.750;5.888;2023-05-09T05:25:01;101307.56;;;16.61;100.00
32320;BME280;19080;51.750;5.888;2023-05-09T05:27:30;101272.72;;;16.61;100.00
32320;BME280;19080;51.750;5.888;2023-05-09T05:29:57;101295.03;;;16.84;100.00
32320;BME280;19080;51.750;5.888;2023-05-09T05:32:24;101200.44;;;16.37;100.00
32320;BME280;19080;51.750;5.888;2023-05-09T05:34:51;101289.59;;;17.01;100.00
32320;BME280;19080;51.750;5.888;2023-05-09T05:37:18;101293.13;;;17.14;100.00
32320;BME280;19080;51.750;5.888;2023-05-09T05:39:44;101271.69;;;17.11;100.00
32320;BME280;19080;51.750;5.888;2023-05-09T05:42:11;101292.19;;;17.24;100.00
32320;BME280;19080;51.750;5.888;2023-05-09T05:44:38;101252.00;;;17.15;100.00
32320;BME280;19080;51.750;5.888;2023-05-09T05:47:05;101257.28;;;17.27;100.00
32320;BME280;19080;51.750;5.888;2023-05-09T05:49:33;101263.47;;;17.34;100.00
32320;BME280;19080;51.750;5.888;2023-05-09T05:52:00;101264.38;;;17.34;100.00
32320;BME280;19080;51.750;5.888;2023-05-09T05:54:26;101252.75;;;17.34;100.00
32320;BME280;19080;51.750;5.888;2023-05-09T05:56:53;101246.44;;;17.39;100.00
32320;BME280;19080;51.750;5.888;2023-05-09T05:59:20;101257.97;;;17.58;100.00
32320;BME280;19080;51.750;5.888;2023-05-09T06:01:47;101231.22;;;17.41;100.00
32320;BME280;19080;51.750;5.888;2023-05-09T06:04:14;101241.03;;;17.45;100.00
32320;BME280;19080;51.750;5.888;2023-05-09T06:06:41;101253.53;;;17.52;100.00
32320;BME280;19080;51.750;5.888;2023-05-09T06:09:07;101188.50;;;17.15;100.00
32320;BME280;19080;51.750;5.888;2023-05-09T06:11:34;101255.31;;;17.53;100.00
32320;BME280;19080;51.750;5.888;2023-05-09T06:14:02;101256.19;;;17.57;100.00
32320;BME280;19080;51.750;5.888;2023-05-09T06:16:29;101224.88;;;17.53;100.00
32320;BME280;19080;51.750;5.888;2023-05-09T06:18:55;101229.38;;;17.52;100.00
32320;BME280;19080;51.750;5.888;2023-05-09T06:21:23;101221.22;;;17.65;100.00
32320;BME280;19080;51.750;5.888;2023-05-09T06:23:49;101235.47;;;17.76;100.00
32320;BME280;19080;51.750;5.888;2023-05-09T06:26:35;101228.25;;;17.84;100.00
32320;BME280;19080;51.750;5.888;2023-05-09T06:29:03;101226.41;;;17.92;100.00
32320;BME280;19080;51.750;5.888;2023-05-09T06:31:29;101230.75;;;18.07;100.00
32320;BME280;19080;51.750;5.888;2023-05-09T06:33:56;101229.69;;;18.23;100.00
32320;BME280;19080;51.750;5.888;2023-05-09T06:36:23;101222.56;;;18.17;100.00
32320;BME280;19080;51.750;5.888;2023-05-09T06:38:49;101226.00;;;18.32;100.00
32320;BME280;19080;51.750;5.888;2023-05-09T06:41:16;101219.56;;;18.49;100.00
32320;BME280;19080;51.750;5.888;2023-05-09T06:43:42;101138.41;;;18.15;100.00
32320;BME280;19080;51.750;5.888;2023-05-09T06:46:09;101222.84;;;18.77;100.00
32320;BME280;19080;51.750;5.888;2023-05-09T06:48:35;101210.31;;;18.75;100.00
32320;BME280;19080;51.750;5.888;2023-05-09T06:51:02;101207.28;;;19.01;100.00
32320;BME280;19080;51.750;5.888;2023-05-09T06:53:29;101127.81;;;18.77;100.00
32320;BME280;19080;51.750;5.888;2023-05-09T06:55:55;101143.56;;;19.04;100.00
32320;BME280;19080;51.750;5.888;2023-05-09T06:58:22;101197.44;;;19.60;100.00
32320;BME280;19080;51.750;5.888;2023-05-09T07:00:49;101146.19;;;19.64;100.00
32320;BME280;19080;51.750;5.888;2023-05-09T07:03:16;101178.03;;;19.92;100.00
32320;BME280;19080;51.750;5.888;2023-05-09T07:05:43;101191.13;;;20.13;100.00
32320;BME280;19080;51.750;5.888;2023-05-09T07:08:10;101188.22;;;20.24;100.00
32320;BME280;19080;51.750;5.888;2023-05-09T07:10:37;101162.47;;;20.07;100.00
32320;BME280;19080;51.750;5.888;2023-05-09T07:13:04;101178.47;;;20.17;100.00
32320;BME280;19080;51.750;5.888;2023-05-09T07:15:31;101177.78;;;20.05;100.00
32320;BME280;19080;51.750;5.888;2023-05-09T07:18:08;101167.06;;;20.02;100.00
32320;BME280;19080;51.750;5.888;2023-05-09T07:20:34;101161.84;;;19.93;100.00
32320;BME280;19080;51.750;5.888;2023-05-09T07:23:02;101170.88;;;19.91;100.00
32320;BME280;19080;51.750;5.888;2023-05-09T07:25:29;101154.88;;;19.80;100.00
32320;BME280;19080;51.750;5.888;2023-05-09T07:27:56;101170.09;;;19.84;100.00
32320;BME280;19080;51.750;5.888;2023-05-09T07:30:22;101165.56;;;19.86;100.00
32320;BME280;19080;51.750;5.888;2023-05-09T07:32:49;101152.09;;;19.86;100.00
32320;BME280;19080;51.750;5.888;2023-05-09T07:35:18;101128.88;;;19.79;100.00
32320;BME280;19080;51.750;5.888;2023-05-09T07:37:44;101152.03;;;19.89;100.00
32320;BME280;19080;51.750;5.888;2023-05-09T07:40:11;101136.13;;;19.75;100.00
32320;BME280;19080;51.750;5.888;2023-05-09T07:42:38;101147.63;;;19.83;100.00
32320;BME280;19080;51.750;5.888;2023-05-09T07:45:05;101150.97;;;19.98;100.00
32320;BME280;19080;51.750;5.888;2023-05-09T07:47:32;101146.19;;;20.13;100.00
32320;BME280;19080;51.750;5.888;2023-05-09T07:49:59;101075.78;;;19.84;100.00
32320;BME280;19080;51.750;5.888;2023-05-09T07:52:25;101144.81;;;20.37;100.00
32320;BME280;19080;51.750;5.888;2023-05-09T07:54:52;101133.97;;;20.42;100.00
32320;BME280;19080;51.750;5.888;2023-05-09T07:57:19;101131.00;;;20.54;100.00
32320;BME280;19080;51.750;5.888;2023-05-09T07:59:46;101134.31;;;20.68;100.00
32320;BME280;19080;51.750;5.888;2023-05-09T08:02:12;101059.25;;;20.47;100.00
32320;BME280;19080;51.750;5.888;2023-05-09T08:04:39;101109.72;;;20.80;100.00
32320;BME280;19080;51.750;5.888;2023-05-09T08:07:07;101115.63;;;20.98;100.00
32320;BME280;19080;51.750;5.888;2023-05-09T08:09:34;101120.25;;;20.91;100.00
32320;BME280;19080;51.750;5.888;2023-05-09T08:12:01;101121.09;;;20.95;100.00
32320;BME280;19080;51.750;5.888;2023-05-09T08:14:27;101100.47;;;20.91;100.00
32320;BME280;19080;51.750;5.888;2023-05-09T08:16:55;101094.69;;;20.70;100.00
32320;BME280;19080;51.750;5.888;2023-05-09T08:19:21;101108.00;;;20.78;100.00
32320;BME280;19080;51.750;5.888;2023-05-09T08:21:51;101099.06;;;20.76;100.00
32320;BME280;19080;51.750;5.888;2023-05-09T08:24:18;101075.22;;;20.56;100.00
32320;BME280;19080;51.750;5.888;2023-05-09T08:26:46;101059.41;;;20.38;100.00
32320;BME280;19080;51.750;5.888;2023-05-09T08:29:13;101091.63;;;20.47;100.00
32320;BME280;19080;51.750;5.888;2023-05-09T08:31:39;101097.31;;;20.30;100.00
32320;BME280;19080;51.750;5.888;2023-05-09T08:34:06;101013.06;;;19.77;100.00
32320;BME280;19080;51.750;5.888;2023-05-09T08:36:33;101068.34;;;19.98;100.00
32320;BME280;19080;51.750;5.888;2023-05-09T08:38:59;101051.44;;;19.90;100.00
32320;BME280;19080;51.750;5.888;2023-05-09T08:41:26;101092.16;;;20.20;100.00
32320;BME280;19080;51.750;5.888;2023-05-09T08:43:56;101038.75;;;19.95;100.00
32320;BME280;19080;51.750;5.888;2023-05-09T08:46:35;101086.56;;;20.29;100.00
32320;BME280;19080;51.750;5.888;2023-05-09T08:49:04;101026.59;;;19.74;100.00
32320;BME280;19080;51.750;5.888;2023-05-09T08:51:31;101018.91;;;19.55;100.00
32320;BME280;19080;51.750;5.888;2023-05-09T08:53:58;101027.38;;;19.30;100.00
32320;BME280;19080;51.750;5.888;2023-05-09T08:56:25;101069.56;;;19.30;100.00
32320;BME280;19080;51.750;5.888;2023-05-09T08:58:54;101037.97;;;18.90;100.00
32320;BME280;19080;51.750;5.888;2023-05-09T09:01:21;101056.63;;;19.01;100.00
32320;BME280;19080;51.750;5.888;2023-05-09T09:03:49;101046.84;;;18.95;100.00
32320;BME280;19080;51.750;5.888;2023-05-09T09:06:16;101079.53;;;19.23;100.00
32320;BME280;19080;51.750;5.888;2023-05-09T09:08:44;101013.59;;;19.01;100.00
32320;BME280;19080;51.750;5.888;2023-05-09T09:11:16;101012.22;;;19.26;100.00
32320;BME280;19080;51.750;5.888;2023-05-09T09:13:43;100962.38;;;19.05;100.00
32320;BME280;19080;51.750;5.888;2023-05-09T09:16:18;101069.53;;;19.82;100.00
32320;BME280;19080;51.750;5.888;2023-05-09T09:18:46;101068.69;;;19.80;100.00
32320;BME280;19080;51.750;5.888;2023-05-09T09:21:15;101070.97;;;20.01;100.00
32320;BME280;19080;51.750;5.888;2023-05-09T09:23:45;101013.59;;;19.96;100.00
32320;BME280;19080;51.750;5.888;2023-05-09T09:26:13;101027.78;;;20.04;100.00
32320;BME280;19080;51.750;5.888;2023-05-09T09:28:40;100937.16;;;19.57;100.00
32320;BME280;19080;51.750;5.888;2023-05-09T09:31:24;101055.38;;;20.17;100.00
32320;BME280;19080;51.750;5.888;2023-05-09T09:33:50;101061.59;;;20.21;100.00
32320;BME280;19080;51.750;5.888;2023-05-09T09:36:30;101046.66;;;20.04;100.00
32320;BME280;19080;51.750;5.888;2023-05-09T09:38:58;100983.03;;;19.51;100.00
32320;BME280;19080;51.750;5.888;2023-05-09T09:41:33;101043.69;;;19.72;100.00
32320;BME280;19080;51.750;5.888;2023-05-09T09:44:07;101059.88;;;19.72;100.00
32320;BME280;19080;51.750;5.888;2023-05-09T09:49:08;101054.44;;;19.73;100.00
32320;BME280;19080;51.750;5.888;2023-05-09T09:51:35;101008.25;;;19.45;100.00
32320;BME280;19080;51.750;5.888;2023-05-09T09:54:02;101033.91;;;19.68;100.00
32320;BME280;19080;51.750;5.888;2023-05-09T09:56:42;101043.66;;;19.75;100.00
32320;BME280;19080;51.750;5.888;2023-05-09T09:59:11;101031.06;;;19.75;100.00
32320;BME280;19080;51.750;5.888;2023-05-09T10:01:58;101040.53;;;19.96;100.00
32320;BME280;19080;51.750;5.888;2023-05-09T10:04:32;101027.97;;;19.95;100.00
32320;BME280;19080;51.750;5.888;2023-05-09T10:07:00;101010.47;;;19.73;100.00
32320;BME280;19080;51.750;5.888;2023-05-09T10:09:28;101019.31;;;19.79;100.00
32320;BME280;19080;51.750;5.888;2023-05-09T10:11:56;101014.78;;;19.81;100.00
32320;BME280;19080;51.750;5.888;2023-05-09T10:14:25;100977.41;;;19.65;100.00
32320;BME280;19080;51.750;5.888;2023-05-09T10:16:56;100954.16;;;19.61;100.00
32320;BME280;19080;51.750;5.888;2023-05-09T10:19:25;101024.41;;;19.95;100.00
32320;BME280;19080;51.750;5.888;2023-05-09T10:21:58;101018.34;;;19.83;100.00
32320;BME280;19080;51.750;5.888;2023-05-09T10:24:33;101033.72;;;19.77;100.00
32320;BME280;19080;51.750;5.888;2023-05-09T10:27:10;101025.16;;;19.55;100.00
32320;BME280;19080;51.750;5.888;2023-05-09T10:29:44;101020.06;;;19.38;100.00
32320;BME280;19080;51.750;5.888;2023-05-09T10:32:17;101018.78;;;19.10;100.00
32320;BME280;19080;51.750;5.888;2023-05-09T10:34:52;100983.72;;;18.59;100.00
32320;BME280;19080;51.750;5.888;2023-05-09T10:37:20;100951.06;;;18.28;100.00
32320;BME280;19080;51.750;5.888;2023-05-09T10:39:48;100969.66;;;18.42;100.00
32320;BME280;19080;51.750;5.888;2023-05-09T10:42:18;100944.78;;;18.28;100.00
32320;BME280;19080;51.750;5.888;2023-05-09T10:44:46;100991.25;;;18.36;100.00
32320;BME280;19080;51.750;5.888;2023-05-09T10:47:14;100994.84;;;18.35;100.00
32320;BME280;19080;51.750;5.888;2023-05-09T10:49:42;100989.56;;;18.29;100.00
32320;BME280;19080;51.750;5.888;2023-05-09T10:52:09;100927.34;;;17.96;100.00
32320;BME280;19080;51.750;5.888;2023-05-09T10:54:36;100978.91;;;18.23;100.00
32320;BME280;19080;51.750;5.888;2023-05-09T10:57:04;100987.69;;;18.34;100.00
32320;BME280;19080;51.750;5.888;2023-05-09T11:02:02;100979.50;;;18.43;100.00
32320;BME280;19080;51.750;5.888;2023-05-09T11:04:30;100971.63;;;18.29;100.00
32320;BME280;19080;51.750;5.888;2023-05-09T11:06:59;100985.22;;;18.18;100.00
32320;BME280;19080;51.750;5.888;2023-05-09T11:09:34;100984.72;;;17.89;100.00
32320;BME280;19080;51.750;5.888;2023-05-09T11:17:03;100990.75;;;17.31;100.00
32320;BME280;19080;51.750;5.888;2023-05-09T11:19:37;100997.00;;;17.32;100.00
32320;BME280;19080;51.750;5.888;2023-05-09T11:22:28;100982.75;;;17.25;100.00
32320;BME280;19080;51.750;5.888;2023-05-09T11:25:06;100976.66;;;17.08;100.00
32320;BME280;19080;51.750;5.888;2023-05-09T11:30:06;100958.09;;;16.86;100.00
32320;BME280;19080;51.750;5.888;2023-05-09T11:32:42;100955.44;;;16.83;100.00
32320;BME280;19080;51.750;5.888;2023-05-09T11:37:59;100964.03;;;17.19;100.00
32320;BME280;19080;51.750;5.888;2023-05-09T11:40:27;100955.75;;;17.39;100.00
32320;BME280;19080;51.750;5.888;2023-05-09T11:42:55;100945.50;;;17.76;100.00
32320;BME280;19080;51.750;5.888;2023-05-09T11:45:28;100941.94;;;17.74;100.00
32320;BME280;19080;51.750;5.888;2023-05-09T11:47:55;100935.34;;;17.99;100.00
32320;BME280;19080;51.750;5.888;2023-05-09T11:50:24;100931.63;;;18.09;100.00
32320;BME280;19080;51.750;5.888;2023-05-09T11:52:52;100813.44;;;17.46;100.00
32320;BME280;19080;51.750;5.888;2023-05-09T11:55:20;100909.31;;;18.04;100.00
32320;BME280;19080;51.750;5.888;2023-05-09T11:57:55;100930.66;;;18.13;100.00
32320;BME280;19080;51.750;5.888;2023-05-09T12:00:24;100916.53;;;17.99;100.00
32320;BME280;19080;51.750;5.888;2023-05-09T12:02:51;100929.03;;;18.03;100.00
32320;BME280;19080;51.750;5.888;2023-05-09T12:05:21;100860.59;;;17.64;100.00
32320;BME280;19080;51.750;5.888;2023-05-09T12:07:49;100921.72;;;18.13;100.00
32320;BME280;19080;51.750;5.888;2023-05-09T12:10:21;100925.28;;;18.13;100.00
32320;BME280;19080;51.750;5.888;2023-05-09T12:12:51;100884.38;;;17.95;100.00
32320;BME280;19080;51.750;5.888;2023-05-09T12:15:20;100898.50;;;18.09;100.00
32320;BME280;19080;51.750;5.888;2023-05-09T12:18:03;100922.72;;;18.06;100.00
32320;BME280;19080;51.750;5.888;2023-05-09T12:23:08;100836.38;;;17.72;100.00
32320;BME280;19080;51.750;5.888;2023-05-09T12:25:35;100907.16;;;18.28;100.00
32320;BME280;19080;51.750;5.888;2023-05-09T12:28:02;100861.06;;;17.98;100.00
32320;BME280;19080;51.750;5.888;2023-05-09T12:30:29;100902.09;;;18.08;100.00
32320;BME280;19080;51.750;5.888;2023-05-09T12:32:55;100891.88;;;17.70;100.00
32320;BME280;19080;51.750;5.888;2023-05-09T12:35:22;100896.38;;;17.69;100.00
32320;BME280;19080;51.750;5.888;2023-05-09T12:37:57;100827.19;;;17.23;100.00
32320;BME280;19080;51.750;5.888;2023-05-09T12:40:24;100834.31;;;17.26;100.00
32320;BME280;19080;51.750;5.888;2023-05-09T12:42:50;100835.28;;;17.19;100.00
32320;BME280;19080;51.750;5.888;2023-05-09T12:45:19;100897.59;;;17.39;100.00
32320;BME280;19080;51.750;5.888;2023-05-09T12:47:50;100888.84;;;17.25;100.00
32320;BME280;19080;51.750;5.888;2023-05-09T12:50:17;100893.47;;;17.14;100.00
32320;BME280;19080;51.750;5.888;2023-05-09T12:52:50;100882.84;;;17.03;100.00
32320;BME280;19080;51.750;5.888;2023-05-09T12:55:29;100865.88;;;17.03;100.00
32320;BME280;19080;51.750;5.888;2023-05-09T12:57:58;100883.47;;;17.28;100.00
32320;BME280;19080;51.750;5.888;2023-05-09T13:00:26;100863.75;;;17.31;100.00
32320;BME280;19080;51.750;5.888;2023-05-09T13:02:53;100874.28;;;17.44;100.00
32320;BME280;19080;51.750;5.888;2023-05-09T13:05:21;100877.75;;;17.52;100.00
32320;BME280;19080;51.750;5.888;2023-05-09T13:07:49;100844.75;;;17.46;100.00
32320;BME280;19080;51.750;5.888;2023-05-09T13:10:25;100830.56;;;17.36;100.00
32320;BME280;19080;51.750;5.888;2023-05-09T13:12:53;100872.31;;;17.58;100.00
32320;BME280;19080;51.750;5.888;2023-05-09T13:15:21;100867.09;;;17.46;100.00
32320;BME280;19080;51.750;5.888;2023-05-09T13:17:49;100807.00;;;16.90;100.00
32320;BME280;19080;51.750;5.888;2023-05-09T13:20:17;100868.34;;;17.19;100.00